Alta, CA

8:44 PM PST on December 02, 2016 (GMT -0800)
Blue Canyon-Nyack | | Change Station

Elev 5282 ft 39.27 °N, 120.71 °W | Updated 1 hour ago

Clear
Clear
35 °F
Feels Like 30 °F
N
6
Wind Variable Wind from Variable

Today
High -- | Low -- °F
--% Chance of Precip.
Yesterday
High -- | Low -- °F
Precip. -- in
Pressure 30.22 in
Visibility 10.0 miles
Clouds Clear
Windchill 30 °F
Dew Point 3 °F
Humidity 26%
Rainfall 0.00 in
Snow Depth Not available.
7:05 AM 4:39 PM
Waxing Crescent, 12% visible
METAR KBLU 030252Z AUTO VRB05KT 10SM CLR 02/M16 A3018 RMK AO2 SLP233 T00171161 58000 TSNO
Pressure 30.22 in
Visibility 10.0 miles
Clouds Clear
Windchill 30 °F
Dew Point 3 °F
Humidity 26%
Rainfall 0.00 in
Snow Depth Not available.
7:05 AM 4:39 PM
Waxing Crescent, 12% visible
METAR KBLU 030252Z AUTO VRB05KT 10SM CLR 02/M16 A3018 RMK AO2 SLP233 T00171161 58000 TSNO

10-Day Weather Forecast

Almanac

Astronomy

Dec. 02, 2016 Rise Set
Actual Time
Civil Twilight
Nautical Twilight
Astronomical Twilight
Moon
Length of Visible Light
Length of Day
Tomorrow will be .
, % of the Moon is Illuminated

Today's Extremes

State Highs State Lows

Community

WunderPhotos

Upload Photos

1,955,411 photos uploaded!

WunderBlog® & News

Nearby

Air Quality

  Air Quality AQ Index Pollutant
Not available.

Snow Depth

Station Depth Elevation

Earthquake Activity

City Distance Mag. Time & Date
Minimum magnitude displayed is 2.5.

Coastal Water Temperatures

Place Temperature

Stations

Nearby Weather Stations

Station Location Temp. Windchill Dew Point Humidity Wind Precip. Elev Updated Type
                   

Watches & Warnings

There are currently no watches in effect.